createdAt,value
2022-10-30T00:00:35.551Z,959.95
2022-10-30T00:03:02.549Z,959.94
2022-10-30T00:05:28.228Z,959.93
2022-10-30T00:07:54.592Z,959.89
2022-10-30T00:10:20.906Z,959.89
2022-10-30T00:12:47.217Z,959.94
2022-10-30T00:15:13.567Z,959.91
2022-10-30T00:17:39.884Z,959.97
2022-10-30T00:20:06.208Z,959.98
2022-10-30T00:22:32.533Z,959.95
2022-10-30T00:24:58.881Z,960.07
2022-10-30T00:27:25.217Z,960.01
2022-10-30T00:29:51.586Z,959.96
2022-10-30T00:32:17.904Z,960.04
2022-10-30T00:34:44.230Z,960.01
2022-10-30T00:37:10.576Z,959.96
2022-10-30T00:39:36.942Z,959.91
2022-10-30T00:42:03.261Z,959.91
2022-10-30T00:44:29.604Z,959.92
2022-10-30T00:46:55.931Z,959.89
2022-10-30T00:49:22.254Z,959.92
2022-10-30T00:51:48.573Z,959.95
2022-10-30T00:54:14.894Z,959.86
2022-10-30T00:56:41.237Z,959.89
2022-10-30T00:59:07.559Z,959.90
2022-10-30T01:01:33.989Z,959.81
2022-10-30T01:04:00.243Z,959.81
2022-10-30T01:06:26.684Z,959.80
2022-10-30T01:08:57.059Z,959.71
2022-10-30T01:11:19.254Z,959.63
2022-10-30T01:13:45.571Z,959.63
2022-10-30T01:16:11.924Z,959.60
2022-10-30T01:18:38.241Z,959.57
2022-10-30T01:21:04.560Z,959.59
2022-10-30T01:23:30.918Z,959.53
2022-10-30T01:25:57.233Z,959.56
2022-10-30T01:28:23.564Z,959.61
2022-10-30T01:30:49.912Z,959.62
2022-10-30T01:33:16.243Z,959.57
2022-10-30T01:35:42.566Z,959.50
2022-10-30T01:38:08.912Z,959.51
2022-10-30T01:40:35.236Z,959.49
2022-10-30T01:43:01.562Z,959.49
2022-10-30T01:45:27.945Z,959.47
2022-10-30T01:47:54.264Z,959.39
2022-10-30T01:50:20.602Z,959.43
2022-10-30T01:52:46.989Z,959.41
2022-10-30T01:55:13.321Z,959.42
2022-10-30T01:57:39.665Z,959.43
2022-10-30T02:00:05.990Z,959.36
2022-10-30T02:02:32.413Z,959.40
2022-10-30T02:04:58.687Z,959.37
2022-10-30T02:07:25.028Z,959.43
2022-10-30T02:09:51.397Z,959.38
2022-10-30T02:12:17.722Z,959.40
2022-10-30T02:14:44.060Z,959.37
2022-10-30T02:17:10.382Z,959.33
2022-10-30T02:19:36.746Z,959.29
2022-10-30T02:22:03.164Z,959.36
2022-10-30T02:24:29.420Z,959.31
2022-10-30T02:26:55.759Z,959.29
2022-10-30T02:29:22.070Z,959.24
2022-10-30T02:31:48.394Z,959.32
2022-10-30T02:34:14.739Z,959.27
2022-10-30T02:36:41.102Z,959.32
2022-10-30T02:39:07.416Z,959.29
2022-10-30T02:41:33.748Z,959.30
2022-10-30T02:44:00.069Z,959.32
2022-10-30T02:46:26.395Z,959.30
2022-10-30T02:48:52.733Z,959.33
2022-10-30T02:51:19.100Z,959.31
2022-10-30T02:53:45.384Z,959.32
2022-10-30T02:56:11.739Z,959.37
2022-10-30T02:58:38.082Z,959.41
2022-10-30T03:01:04.442Z,959.41
2022-10-30T03:03:30.749Z,959.41
2022-10-30T03:05:57.096Z,959.46
2022-10-30T03:08:23.418Z,959.52
2022-10-30T03:10:49.763Z,959.56
2022-10-30T03:13:16.101Z,959.58
2022-10-30T03:15:42.473Z,959.60
2022-10-30T03:18:08.815Z,959.59
2022-10-30T03:20:35.164Z,959.61
2022-10-30T03:23:01.511Z,959.56
2022-10-30T03:25:27.828Z,959.52
2022-10-30T03:27:54.177Z,959.51
2022-10-30T03:30:20.520Z,959.47
2022-10-30T03:32:46.848Z,959.53
2022-10-30T03:35:13.171Z,959.52
2022-10-30T03:37:39.514Z,959.58
2022-10-30T03:40:05.863Z,959.53
2022-10-30T03:42:32.201Z,959.55
2022-10-30T03:44:58.539Z,959.51
2022-10-30T03:47:24.860Z,959.49
2022-10-30T03:49:51.192Z,959.48
2022-10-30T03:52:17.517Z,959.52
2022-10-30T03:54:43.871Z,959.48
2022-10-30T03:57:10.211Z,959.46
2022-10-30T03:59:36.558Z,959.44
2022-10-30T04:02:03.045Z,959.36
2022-10-30T04:04:29.254Z,959.38
2022-10-30T04:06:55.587Z,959.38
2022-10-30T04:09:21.896Z,959.46
2022-10-30T04:11:48.242Z,959.54
2022-10-30T04:14:14.584Z,959.55
2022-10-30T04:16:40.920Z,959.50
2022-10-30T04:19:07.242Z,959.49
2022-10-30T04:21:33.580Z,959.45
2022-10-30T04:23:59.927Z,959.50
2022-10-30T04:26:26.259Z,959.48
2022-10-30T04:28:52.610Z,959.42
2022-10-30T04:31:18.963Z,959.40
2022-10-30T04:33:45.271Z,959.40
2022-10-30T04:36:11.592Z,959.41
2022-10-30T04:38:37.944Z,959.48
2022-10-30T04:43:30.407Z,959.50
2022-10-30T04:45:56.744Z,959.56
2022-10-30T04:48:23.087Z,959.49
2022-10-30T04:50:49.401Z,959.56
2022-10-30T04:53:15.726Z,959.62
2022-10-30T04:55:42.070Z,959.55
2022-10-30T04:58:08.413Z,959.58
2022-10-30T05:00:34.753Z,959.53
2022-10-30T05:03:01.115Z,959.53
2022-10-30T05:05:27.435Z,959.50
2022-10-30T05:07:53.769Z,959.55
2022-10-30T05:10:20.137Z,959.57
2022-10-30T05:12:46.478Z,959.61
2022-10-30T05:15:12.813Z,959.63
2022-10-30T05:17:39.163Z,959.64
2022-10-30T05:20:05.504Z,959.62
2022-10-30T05:22:31.843Z,959.59
2022-10-30T05:24:58.202Z,959.66
2022-10-30T05:27:24.547Z,959.66
2022-10-30T05:29:50.870Z,959.56
2022-10-30T05:32:17.256Z,959.63
2022-10-30T05:34:43.568Z,959.68
2022-10-30T05:37:09.918Z,959.78
2022-10-30T05:39:36.277Z,959.73
2022-10-30T05:42:02.616Z,959.69
2022-10-30T05:44:54.782Z,959.67
2022-10-30T05:49:21.620Z,959.66
2022-10-30T05:51:47.946Z,959.63
2022-10-30T05:54:14.290Z,959.62
2022-10-30T05:56:40.637Z,959.69
2022-10-30T05:59:10.820Z,959.72
2022-10-30T06:01:37.243Z,959.68
2022-10-30T06:04:03.524Z,959.68
2022-10-30T06:06:29.868Z,959.69
2022-10-30T06:08:56.224Z,959.70
2022-10-30T06:11:22.580Z,959.71
2022-10-30T06:13:48.928Z,959.73
2022-10-30T06:16:15.273Z,959.64
2022-10-30T06:18:41.584Z,959.65
2022-10-30T06:21:08.369Z,959.61
2022-10-30T06:23:34.692Z,959.64
2022-10-30T06:26:01.054Z,959.73
2022-10-30T06:28:27.384Z,959.66
2022-10-30T06:30:53.716Z,959.62
2022-10-30T06:33:20.393Z,959.73
2022-10-30T06:35:46.738Z,959.79
2022-10-30T06:38:13.072Z,959.65
2022-10-30T06:40:39.424Z,959.72
2022-10-30T06:43:05.793Z,959.70
2022-10-30T06:45:32.128Z,959.64
2022-10-30T06:47:58.727Z,959.78
2022-10-30T06:50:24.827Z,959.81
2022-10-30T06:52:51.165Z,959.84
2022-10-30T06:55:17.505Z,959.76
2022-10-30T06:57:43.843Z,959.71
2022-10-30T07:00:10.204Z,959.75
2022-10-30T07:02:36.569Z,959.77
2022-10-30T07:05:02.958Z,959.78
2022-10-30T07:07:29.322Z,959.79
2022-10-30T07:09:55.700Z,959.81
2022-10-30T07:12:22.098Z,959.86
2022-10-30T07:14:48.495Z,959.83
2022-10-30T07:17:14.962Z,959.71
2022-10-30T07:19:41.293Z,959.69
2022-10-30T07:22:07.704Z,959.71
2022-10-30T07:24:34.025Z,959.60
2022-10-30T07:27:00.616Z,959.59
2022-10-30T07:29:26.975Z,959.53
2022-10-30T07:32:06.550Z,959.54
2022-10-30T07:34:19.697Z,959.53
2022-10-30T07:36:46.018Z,959.65
2022-10-30T07:39:12.410Z,959.66
2022-10-30T07:41:38.729Z,959.58
2022-10-30T07:44:05.058Z,959.56
2022-10-30T07:46:31.411Z,959.49
2022-10-30T07:48:57.732Z,959.43
2022-10-30T07:51:24.160Z,959.47
2022-10-30T07:53:50.472Z,959.45
2022-10-30T07:56:16.819Z,959.43
2022-10-30T07:58:45.678Z,959.42
2022-10-30T08:01:09.585Z,959.38
2022-10-30T08:03:35.795Z,959.33
2022-10-30T08:06:02.245Z,959.32
2022-10-30T08:08:28.499Z,959.29
2022-10-30T08:10:54.836Z,959.28
2022-10-30T08:13:21.222Z,959.25
2022-10-30T08:15:47.571Z,959.25
2022-10-30T08:18:13.908Z,959.16
2022-10-30T08:20:40.310Z,959.15
2022-10-30T08:23:06.576Z,959.10
2022-10-30T08:25:32.892Z,959.11
2022-10-30T08:27:59.244Z,959.10
2022-10-30T08:30:25.584Z,959.12
2022-10-30T08:32:51.946Z,959.13
2022-10-30T08:35:20.068Z,959.13
2022-10-30T08:37:44.642Z,959.16
2022-10-30T08:40:10.982Z,959.15
2022-10-30T08:42:37.336Z,959.18
2022-10-30T08:45:03.668Z,959.12
2022-10-30T08:47:30.035Z,959.14
2022-10-30T08:49:56.366Z,959.05
2022-10-30T08:52:22.692Z,959.10
2022-10-30T08:54:49.027Z,959.04
2022-10-30T08:57:15.343Z,959.06
2022-10-30T08:59:41.740Z,959.04
2022-10-30T09:02:08.159Z,958.92
2022-10-30T09:04:34.394Z,958.90
2022-10-30T09:07:00.738Z,958.91
2022-10-30T09:09:27.076Z,958.88
2022-10-30T09:11:53.415Z,958.79
2022-10-30T09:14:19.774Z,958.83
2022-10-30T09:16:46.101Z,958.84
2022-10-30T09:19:17.675Z,958.78
2022-10-30T09:21:38.771Z,958.73
2022-10-30T09:24:05.127Z,958.78
2022-10-30T09:26:31.448Z,958.71
2022-10-30T09:28:57.801Z,958.79
2022-10-30T09:31:24.152Z,958.69
2022-10-30T09:33:50.503Z,958.68
2022-10-30T09:36:19.657Z,958.71
2022-10-30T09:38:43.173Z,958.57
2022-10-30T09:41:09.539Z,958.52
2022-10-30T09:43:35.889Z,958.49
2022-10-30T09:46:02.219Z,958.43
2022-10-30T09:48:28.546Z,958.46
2022-10-30T09:50:54.866Z,958.40
2022-10-30T09:53:21.197Z,958.38
2022-10-30T09:55:47.544Z,958.31
2022-10-30T09:58:13.908Z,958.29
2022-10-30T10:00:40.234Z,958.26
2022-10-30T10:03:06.549Z,958.26
2022-10-30T10:05:32.927Z,958.21
2022-10-30T10:07:59.749Z,958.18
2022-10-30T10:10:25.617Z,958.15
2022-10-30T10:12:53.869Z,958.04
2022-10-30T10:15:18.263Z,957.98
2022-10-30T10:17:44.613Z,957.93
2022-10-30T10:20:10.968Z,957.85
2022-10-30T10:22:37.318Z,957.75
2022-10-30T10:25:03.656Z,957.73
2022-10-30T10:27:30.001Z,957.71
2022-10-30T10:29:56.368Z,957.75
2022-10-30T10:32:22.690Z,957.76
2022-10-30T10:34:49.032Z,957.58
2022-10-30T10:37:15.383Z,957.61
2022-10-30T10:39:41.724Z,957.65
2022-10-30T10:42:08.045Z,957.59
2022-10-30T10:44:34.391Z,957.57
2022-10-30T10:47:06.010Z,957.54
2022-10-30T10:49:27.072Z,957.41
2022-10-30T10:51:53.389Z,957.41
2022-10-30T10:54:19.807Z,957.39
2022-10-30T10:56:46.523Z,957.35
2022-10-30T10:59:12.839Z,957.33
2022-10-30T11:01:39.269Z,957.30
2022-10-30T11:04:05.527Z,957.21
2022-10-30T11:06:31.865Z,957.20
2022-10-30T11:08:58.215Z,957.16
2022-10-30T11:11:24.561Z,957.17
2022-10-30T11:13:50.894Z,957.16
2022-10-30T11:16:17.244Z,957.11
2022-10-30T11:18:43.586Z,957.05
2022-10-30T11:21:09.918Z,957.00
2022-10-30T11:23:36.255Z,956.96
2022-10-30T11:26:02.599Z,956.94
2022-10-30T11:28:28.936Z,956.88
2022-10-30T11:30:55.264Z,956.89
2022-10-30T11:33:21.584Z,956.77
2022-10-30T11:35:47.909Z,956.78
2022-10-30T11:38:14.238Z,956.71
2022-10-30T11:40:40.576Z,956.75
2022-10-30T11:43:06.968Z,956.68
2022-10-30T11:45:33.317Z,956.72
2022-10-30T11:48:02.524Z,956.69
2022-10-30T11:50:25.953Z,956.66
2022-10-30T11:52:52.317Z,956.62
2022-10-30T11:55:18.666Z,956.63
2022-10-30T11:57:45.003Z,956.57
2022-10-30T12:00:11.346Z,956.51
2022-10-30T12:05:04.021Z,956.44
2022-10-30T12:07:30.364Z,956.43
2022-10-30T12:09:56.709Z,956.43
2022-10-30T12:12:23.044Z,956.38
2022-10-30T12:14:49.390Z,956.35
2022-10-30T12:17:15.739Z,956.35
2022-10-30T12:19:42.061Z,956.27
2022-10-30T12:22:09.866Z,956.22
2022-10-30T12:24:34.741Z,956.19
2022-10-30T12:27:01.078Z,956.19
2022-10-30T12:29:41.708Z,956.18
2022-10-30T12:31:53.719Z,956.10
2022-10-30T12:34:20.071Z,956.15
2022-10-30T12:36:46.459Z,956.14
2022-10-30T12:39:12.784Z,956.09
2022-10-30T12:41:39.137Z,956.13
2022-10-30T12:44:05.480Z,956.08
2022-10-30T12:46:31.796Z,956.01
2022-10-30T12:48:58.143Z,955.99
2022-10-30T12:51:24.487Z,956.10
2022-10-30T12:53:50.826Z,956.07
2022-10-30T12:56:17.193Z,956.00
2022-10-30T12:58:43.528Z,955.95
2022-10-30T13:01:09.925Z,955.95
2022-10-30T13:03:36.285Z,955.93
2022-10-30T13:06:02.666Z,955.88
2022-10-30T13:08:28.989Z,955.88
2022-10-30T13:10:55.322Z,955.85
2022-10-30T13:13:21.646Z,955.89
2022-10-30T13:15:47.992Z,955.86
2022-10-30T13:18:14.323Z,955.85
2022-10-30T13:20:40.649Z,955.77
2022-10-30T13:23:06.974Z,955.76
2022-10-30T13:25:33.365Z,955.73
2022-10-30T13:27:59.691Z,955.73
2022-10-30T13:30:26.037Z,955.70
2022-10-30T13:32:52.361Z,955.67
2022-10-30T13:35:18.680Z,955.64
2022-10-30T13:37:45.052Z,955.70
2022-10-30T13:40:11.368Z,955.70
2022-10-30T13:42:37.709Z,955.66
2022-10-30T13:45:04.024Z,955.63
2022-10-30T13:47:30.369Z,955.58
2022-10-30T13:49:56.808Z,955.62
2022-10-30T13:52:23.200Z,955.69
2022-10-30T13:54:49.471Z,955.64
2022-10-30T13:57:15.802Z,955.70
2022-10-30T13:59:42.122Z,955.66
2022-10-30T14:02:08.582Z,955.68
2022-10-30T14:04:34.788Z,955.64
2022-10-30T14:07:01.132Z,955.60
2022-10-30T14:09:27.451Z,955.64
2022-10-30T14:11:53.800Z,955.65
2022-10-30T14:14:20.113Z,955.63
2022-10-30T14:16:46.441Z,955.64
2022-10-30T14:19:12.760Z,955.63
2022-10-30T14:21:39.123Z,955.63
2022-10-30T14:24:05.510Z,955.63
2022-10-30T14:26:31.829Z,955.66
2022-10-30T14:28:58.150Z,955.69
2022-10-30T14:31:24.481Z,955.69
2022-10-30T14:33:50.830Z,955.70
2022-10-30T14:36:17.200Z,955.71
2022-10-30T14:38:43.522Z,955.72
2022-10-30T14:41:12.874Z,955.72
2022-10-30T14:43:36.204Z,955.77
2022-10-30T14:46:02.519Z,955.69
2022-10-30T14:48:28.855Z,955.76
2022-10-30T14:50:55.212Z,955.75
2022-10-30T14:53:21.521Z,955.79
2022-10-30T14:55:47.899Z,955.80
2022-10-30T14:58:14.241Z,955.75
2022-10-30T15:00:40.572Z,955.74
2022-10-30T15:03:06.914Z,955.71
2022-10-30T15:05:33.302Z,955.74
2022-10-30T15:07:59.897Z,955.72
2022-10-30T15:10:25.984Z,955.77
2022-10-30T15:12:52.294Z,955.74
2022-10-30T15:15:18.643Z,955.68
2022-10-30T15:17:44.946Z,955.70
2022-10-30T15:20:11.293Z,955.79
2022-10-30T15:22:37.614Z,955.83
2022-10-30T15:25:03.945Z,955.81
2022-10-30T15:27:30.291Z,955.77
2022-10-30T15:29:56.667Z,955.82
2022-10-30T15:32:23.004Z,955.75
2022-10-30T15:34:49.332Z,955.83
2022-10-30T15:37:15.690Z,955.77
2022-10-30T15:39:42.041Z,955.78
2022-10-30T15:42:08.377Z,955.75
2022-10-30T15:44:34.762Z,955.75
2022-10-30T15:47:01.169Z,955.88
2022-10-30T15:49:27.427Z,955.91
2022-10-30T15:51:53.757Z,955.87
2022-10-30T15:54:20.081Z,955.87
2022-10-30T15:57:17.925Z,955.90
2022-10-30T15:59:12.728Z,955.91
2022-10-30T16:01:39.253Z,956.00
2022-10-30T16:04:05.404Z,955.94
2022-10-30T16:06:31.729Z,956.01
2022-10-30T16:08:58.125Z,955.99
2022-10-30T16:11:24.473Z,956.10
2022-10-30T16:13:50.823Z,956.10
2022-10-30T16:16:17.657Z,956.06
2022-10-30T16:18:44.000Z,956.13
2022-10-30T16:21:10.338Z,956.16
2022-10-30T16:23:36.688Z,956.17
2022-10-30T16:26:03.002Z,956.16
2022-10-30T16:28:29.357Z,956.18
2022-10-30T16:30:55.695Z,956.23
2022-10-30T16:33:22.047Z,956.18
2022-10-30T16:35:54.652Z,956.21
2022-10-30T16:38:14.764Z,956.24
2022-10-30T16:40:41.085Z,956.21
2022-10-30T16:43:07.420Z,956.27
2022-10-30T16:45:33.770Z,956.27
2022-10-30T16:48:04.438Z,956.27
2022-10-30T16:50:26.452Z,956.35
2022-10-30T16:52:52.774Z,956.29
2022-10-30T16:55:19.095Z,956.30
2022-10-30T16:57:45.438Z,956.35
2022-10-30T17:00:11.841Z,956.39
2022-10-30T17:02:38.261Z,956.36
2022-10-30T17:05:04.506Z,956.37
2022-10-30T17:07:30.852Z,956.36
2022-10-30T17:09:57.165Z,956.36
2022-10-30T17:12:23.511Z,956.39
2022-10-30T17:14:49.851Z,956.35
2022-10-30T17:17:16.174Z,956.34
2022-10-30T17:19:42.550Z,956.35
2022-10-30T17:22:08.896Z,956.37
2022-10-30T17:24:35.215Z,956.38
2022-10-30T17:27:01.579Z,956.38
2022-10-30T17:29:27.895Z,956.42
2022-10-30T17:31:54.246Z,956.40
2022-10-30T17:34:20.571Z,956.45
2022-10-30T17:36:46.911Z,956.44
2022-10-30T17:39:13.266Z,956.41
2022-10-30T17:41:39.614Z,956.36
2022-10-30T17:44:06.942Z,956.38
2022-10-30T17:46:33.293Z,956.42
2022-10-30T17:48:59.666Z,956.39
2022-10-30T17:51:26.008Z,956.40
2022-10-30T17:53:52.327Z,956.42
2022-10-30T17:56:18.707Z,956.44
2022-10-30T17:58:45.038Z,956.40
2022-10-30T18:01:11.398Z,956.34
2022-10-30T18:03:37.758Z,956.32
2022-10-30T18:06:05.090Z,956.31
2022-10-30T18:08:31.425Z,956.35
2022-10-30T18:10:57.766Z,956.30
2022-10-30T18:13:24.086Z,956.33
2022-10-30T18:15:50.430Z,956.30
2022-10-30T18:18:16.774Z,956.37
2022-10-30T18:20:43.115Z,956.39
2022-10-30T18:23:12.769Z,956.31
2022-10-30T18:25:35.807Z,956.41
2022-10-30T18:28:02.151Z,956.45
2022-10-30T18:30:28.467Z,956.36
2022-10-30T18:32:54.795Z,956.41
2022-10-30T18:35:21.121Z,956.49
2022-10-30T18:37:47.475Z,956.49
2022-10-30T18:40:13.804Z,956.44
2022-10-30T18:42:40.175Z,956.51
2022-10-30T18:45:06.509Z,956.44
2022-10-30T18:47:32.848Z,956.45
2022-10-30T18:49:59.211Z,956.47
2022-10-30T18:52:25.552Z,956.37
2022-10-30T18:54:51.892Z,956.40
2022-10-30T18:57:18.237Z,956.41
2022-10-30T18:59:44.574Z,956.44
2022-10-30T19:02:11.000Z,956.48
2022-10-30T19:04:37.252Z,956.46
2022-10-30T19:07:03.585Z,956.45
2022-10-30T19:09:29.934Z,956.53
2022-10-30T19:11:56.259Z,956.52
2022-10-30T19:14:22.579Z,956.56
2022-10-30T19:16:48.962Z,956.57
2022-10-30T19:19:15.298Z,956.57
2022-10-30T19:21:41.638Z,956.61
2022-10-30T19:24:07.991Z,956.66
2022-10-30T19:26:34.334Z,956.65
2022-10-30T19:29:00.670Z,956.57
2022-10-30T19:31:26.985Z,956.57
2022-10-30T19:33:57.074Z,956.52
2022-10-30T19:36:19.702Z,956.47
2022-10-30T19:38:46.035Z,956.45
2022-10-30T19:41:12.356Z,956.59
2022-10-30T19:43:38.681Z,956.58
2022-10-30T19:46:05.043Z,956.54
2022-10-30T19:49:01.282Z,956.51
2022-10-30T19:50:57.726Z,956.52
2022-10-30T19:53:24.085Z,956.53
2022-10-30T19:55:50.434Z,956.54
2022-10-30T19:58:18.038Z,956.54
2022-10-30T20:00:43.124Z,956.59
2022-10-30T20:03:09.445Z,956.65
2022-10-30T20:05:35.755Z,956.74
2022-10-30T20:08:02.383Z,956.78
2022-10-30T20:10:28.452Z,956.83
2022-10-30T20:12:54.838Z,956.89
2022-10-30T20:15:21.158Z,956.84
2022-10-30T20:17:47.479Z,956.86
2022-10-30T20:20:13.820Z,956.87
2022-10-30T20:22:40.196Z,956.89
2022-10-30T20:25:06.515Z,956.95
2022-10-30T20:27:32.858Z,956.93
2022-10-30T20:29:59.202Z,956.95
2022-10-30T20:32:25.545Z,956.86
2022-10-30T20:34:51.874Z,956.82
2022-10-30T20:37:18.212Z,956.85
2022-10-30T20:39:44.569Z,956.85
2022-10-30T20:42:10.895Z,956.90
2022-10-30T20:44:37.221Z,956.91
2022-10-30T20:47:03.560Z,956.90
2022-10-30T20:49:29.907Z,956.89
2022-10-30T20:51:56.266Z,956.93
2022-10-30T20:54:22.609Z,956.85
2022-10-30T20:56:48.923Z,956.85
2022-10-30T20:59:15.275Z,956.83
2022-10-30T21:01:41.749Z,956.82
2022-10-30T21:04:07.933Z,956.79
2022-10-30T21:06:34.290Z,956.78
2022-10-30T21:09:00.642Z,956.78
2022-10-30T21:11:26.976Z,956.74
2022-10-30T21:13:53.320Z,956.74
2022-10-30T21:16:19.662Z,956.69
2022-10-30T21:18:45.998Z,956.72
2022-10-30T21:21:12.323Z,956.73
2022-10-30T21:23:38.633Z,956.75
2022-10-30T21:26:05.006Z,956.73
2022-10-30T21:28:31.343Z,956.69
2022-10-30T21:30:57.651Z,956.68
2022-10-30T21:33:24.057Z,956.65
2022-10-30T21:35:50.398Z,956.67
2022-10-30T21:38:16.719Z,956.61
2022-10-30T21:40:43.060Z,956.63
2022-10-30T21:43:09.732Z,956.71
2022-10-30T21:45:35.721Z,956.72
2022-10-30T21:48:02.064Z,956.75
2022-10-30T21:50:28.446Z,956.83
2022-10-30T21:52:54.779Z,956.81
2022-10-30T21:55:21.106Z,956.90
2022-10-30T21:57:47.476Z,956.87
2022-10-30T22:00:13.799Z,956.85
2022-10-30T22:02:40.123Z,956.87
2022-10-30T22:05:06.492Z,956.91
2022-10-30T22:07:32.811Z,956.96
2022-10-30T22:09:59.166Z,956.96
2022-10-30T22:12:25.532Z,957.01
2022-10-30T22:14:51.855Z,957.00
2022-10-30T22:17:18.205Z,957.00
2022-10-30T22:19:44.557Z,957.06
2022-10-30T22:22:10.914Z,956.96
2022-10-30T22:24:37.251Z,956.93
2022-10-30T22:27:03.584Z,957.01
2022-10-30T22:29:29.928Z,956.91
2022-10-30T22:31:56.252Z,956.91
2022-10-30T22:34:22.593Z,956.81
2022-10-30T22:36:48.961Z,956.82
2022-10-30T22:39:15.319Z,956.81
2022-10-30T22:41:41.622Z,956.79
2022-10-30T22:44:08.667Z,956.74
2022-10-30T22:46:34.324Z,956.76
2022-10-30T22:49:00.662Z,956.69
2022-10-30T22:51:27.025Z,956.69
2022-10-30T22:53:53.355Z,956.71
2022-10-30T22:56:19.704Z,956.75
2022-10-30T22:58:46.094Z,956.72
2022-10-30T23:01:12.386Z,956.69
2022-10-30T23:03:38.813Z,956.75
2022-10-30T23:06:05.090Z,956.66
2022-10-30T23:08:31.362Z,956.68
2022-10-30T23:10:57.681Z,956.63
2022-10-30T23:13:24.049Z,956.57
2022-10-30T23:15:50.359Z,956.61
2022-10-30T23:18:16.705Z,956.63
2022-10-30T23:20:43.064Z,956.68
2022-10-30T23:23:09.408Z,956.79
2022-10-30T23:25:35.728Z,956.83
2022-10-30T23:28:02.253Z,956.90
2022-10-30T23:30:28.428Z,956.84
2022-10-30T23:32:54.771Z,956.81
2022-10-30T23:35:21.130Z,956.83
2022-10-30T23:37:47.487Z,956.84
2022-10-30T23:40:13.840Z,956.83
2022-10-30T23:42:40.175Z,956.82
2022-10-30T23:45:06.538Z,956.81
2022-10-30T23:47:32.858Z,956.82
2022-10-30T23:49:59.199Z,956.76
2022-10-30T23:52:25.538Z,956.75
2022-10-30T23:54:51.924Z,956.83
2022-10-30T23:57:18.239Z,956.83
2022-10-30T23:59:44.587Z,956.74
